Genco Leader — VRYR8 — position and weather

sailwx.info

Track history (hours):
 
Tides and Currents Weather Stations Pressure Air Temp Water Temp Dewpoint Dewpoint Depression Visibility Wind Speed Wind Dir Waves Ship Positions

Genco Leader

Last reported at 2015-May-30 21:33 UTC. Time now 2015-May-30 22:32 UTC.
Position N 40°39' E 017°58'.

Length 225 m; draft 12.3 m.

Type: Cargo ship. MMSI: 477132000.

Date/timePositionNaut miles runAvg speedWind from/ knotsBaromVisibWave heightAir tempDewpointWater temp
2015-May-30 21:33N 40°39' E 017°58'0 0.0
2015-May-30 20:33N 40°39' E 017°58'0 0.0
2015-May-30 19:30N 40°39' E 017°58'0 0.0
2015-May-30 18:12N 40°39' E 017°58'0 0.0
2015-May-30 17:33N 40°39' E 017°58'0 0.0
2015-May-30 16:33N 40°39' E 017°58'0 0.0
2015-May-30 15:33N 40°39' E 017°58'0 0.0
2015-May-30 14:33N 40°39' E 017°58'0 0.0
2015-May-30 13:33N 40°39' E 017°58'0 0.0
2015-May-30 12:33N 40°39' E 017°58'0 0.0
2015-May-30 11:30N 40°39' E 017°58'0 0.0
2015-May-30 10:33N 40°39' E 017°58'0 0.0
2015-May-30 08:33N 40°39' E 017°58'0 0.0
2015-May-30 07:27N 40°39' E 017°58'  
2015-May-26 23:18N 40°03' E 018°41'1110.3
2015-May-26 22:14N 39°52' E 018°40'710.1
2015-May-26 21:32N 39°46' E 018°36'24910.8
2015-May-25 22:32N 36°34' E 015°14'1510.4
2015-May-25 21:05N 36°27' E 014°58'610.6
2015-May-25 20:33N 36°27' E 014°51'1110.7
2015-May-25 19:34N 36°27' E 014°37'1110.8
2015-May-25 18:33N 36°28' E 014°24'1111.0
2015-May-25 17:34N 36°32' E 014°11'1111.1
2015-May-25 16:33N 36°34' E 013°57'1111.3
2015-May-25 15:34N 36°37' E 013°44'1111.3
2015-May-25 14:33N 36°40' E 013°30'1111.3
2015-May-25 13:34N 36°43' E 013°17'1110.9
2015-May-25 12:33N 36°46' E 013°03'1110.9
2015-May-25 11:33N 36°49' E 012°50'1111.1
2015-May-25 10:34N 36°52' E 012°37'1111.2
2015-May-25 09:33N 36°55' E 012°23'1411.1
2015-May-25 08:15N 36°58' E 012°06'  
2015-May-23 03:17N 36°42' E 000°21'5110.2
2015-May-22 22:20N 36°35' W 000°42'21710.3
2015-May-22 01:16N 36°01' W 005°08'710.0
2015-May-22 00:33N 36°03' W 005°16'6 6.1
2015-May-21 23:32N 36°07' W 005°22'0 0.0
2015-May-21 19:29N 36°07' W 005°22'0 0.2
2015-May-21 18:32N 36°07' W 005°22'0 0.1
2015-May-21 17:31N 36°07' W 005°22'0 0.1
2015-May-21 16:29N 36°07' W 005°22'0 0.0
2015-May-21 15:21N 36°07' W 005°22'0 0.0
2015-May-21 14:20N 36°07' W 005°22'0 0.1
2015-May-21 13:29N 36°07' W 005°22'0 0.1
2015-May-21 12:33N 36°07' W 005°22'0 0.2
2015-May-21 11:33N 36°07' W 005°22'3 2.6
2015-May-21 10:33N 36°04' W 005°22'2 2.4
2015-May-21 09:33N 36°02' W 005°23'9 8.5
2015-May-21 08:33N 35°57' W 005°31'  
Track history (hours):
 
Tides and Currents Weather Stations Pressure Air Temp Water Temp Dewpoint Dewpoint Depression Visibility Wind Speed Wind Dir Waves Ship Positions

Genco Leader

Last reported at 2015-May-30 21:33 UTC. Time now 2015-May-30 22:32 UTC.
Position N 40°39' E 017°58'.

Length 225 m; draft 12.3 m.

Type: Cargo ship. MMSI: 477132000.

Date/timePositionNaut miles runAvg speedWind from/ knotsBaromVisibWave heightAir tempDewpointWater temp
2015-May-30 21:33N 40°39' E 017°58'0 0.0
2015-May-30 20:33N 40°39' E 017°58'0 0.0
2015-May-30 19:30N 40°39' E 017°58'0 0.0
2015-May-30 18:12N 40°39' E 017°58'0 0.0
2015-May-30 17:33N 40°39' E 017°58'0 0.0
2015-May-30 16:33N 40°39' E 017°58'0 0.0
2015-May-30 15:33N 40°39' E 017°58'0 0.0
2015-May-30 14:33N 40°39' E 017°58'0 0.0
2015-May-30 13:33N 40°39' E 017°58'0 0.0
2015-May-30 12:33N 40°39' E 017°58'0 0.0
2015-May-30 11:30N 40°39' E 017°58'0 0.0
2015-May-30 10:33N 40°39' E 017°58'0 0.0
2015-May-30 08:33N 40°39' E 017°58'0 0.0
2015-May-30 07:27N 40°39' E 017°58'  
2015-May-26 23:18N 40°03' E 018°41'1110.3
2015-May-26 22:14N 39°52' E 018°40'710.1
2015-May-26 21:32N 39°46' E 018°36'24910.8
2015-May-25 22:32N 36°34' E 015°14'1510.4
2015-May-25 21:05N 36°27' E 014°58'610.6
2015-May-25 20:33N 36°27' E 014°51'1110.7
2015-May-25 19:34N 36°27' E 014°37'1110.8
2015-May-25 18:33N 36°28' E 014°24'1111.0
2015-May-25 17:34N 36°32' E 014°11'1111.1
2015-May-25 16:33N 36°34' E 013°57'1111.3
2015-May-25 15:34N 36°37' E 013°44'1111.3
2015-May-25 14:33N 36°40' E 013°30'1111.3
2015-May-25 13:34N 36°43' E 013°17'1110.9
2015-May-25 12:33N 36°46' E 013°03'1110.9
2015-May-25 11:33N 36°49' E 012°50'1111.1
2015-May-25 10:34N 36°52' E 012°37'1111.2
2015-May-25 09:33N 36°55' E 012°23'1411.1
2015-May-25 08:15N 36°58' E 012°06'  
2015-May-23 03:17N 36°42' E 000°21'5110.2
2015-May-22 22:20N 36°35' W 000°42'21710.3
2015-May-22 01:16N 36°01' W 005°08'710.0
2015-May-22 00:33N 36°03' W 005°16'6 6.1
2015-May-21 23:32N 36°07' W 005°22'0 0.0
2015-May-21 19:29N 36°07' W 005°22'0 0.2
2015-May-21 18:32N 36°07' W 005°22'0 0.1
2015-May-21 17:31N 36°07' W 005°22'0 0.1
2015-May-21 16:29N 36°07' W 005°22'0 0.0
2015-May-21 15:21N 36°07' W 005°22'0 0.0
2015-May-21 14:20N 36°07' W 005°22'0 0.1
2015-May-21 13:29N 36°07' W 005°22'0 0.1
2015-May-21 12:33N 36°07' W 005°22'0 0.2
2015-May-21 11:33N 36°07' W 005°22'3 2.6
2015-May-21 10:33N 36°04' W 005°22'2 2.4
2015-May-21 09:33N 36°02' W 005°23'9 8.5
2015-May-21 08:33N 35°57' W 005°31'  

Dump ship's entire track history